createdAt,value
2023-05-10T00:00:34.720Z,610.6
2023-05-10T00:01:41.442Z,612.1
2023-05-10T00:02:48.228Z,611.2
2023-05-10T00:03:54.998Z,611.6
2023-05-10T00:05:01.863Z,611.8
2023-05-10T00:06:08.501Z,611.5
2023-05-10T00:07:15.248Z,610.2
2023-05-10T00:09:27.447Z,610.7
2023-05-10T00:11:06.220Z,609
2023-05-10T00:12:19.365Z,611
2023-05-10T00:13:26.606Z,609.1
2023-05-10T00:15:05.334Z,612.2
2023-05-10T00:16:44.091Z,611.3
2023-05-10T00:18:22.840Z,610.7
2023-05-10T00:20:01.549Z,612.2
2023-05-10T00:21:40.311Z,610.6
2023-05-10T00:23:19.033Z,609.3
2023-05-10T00:24:57.766Z,610.7
2023-05-10T00:26:36.508Z,610.3
2023-05-10T00:28:15.253Z,609.7
2023-05-10T00:29:55.006Z,609
2023-05-10T00:33:11.508Z,610.9
2023-05-10T00:34:58.329Z,609.8
2023-05-10T00:36:37.081Z,611
2023-05-10T00:38:15.812Z,608.9
2023-05-10T00:39:54.548Z,612.7
2023-05-10T00:41:33.288Z,611.9
2023-05-10T00:43:12.034Z,611.1
2023-05-10T00:44:50.766Z,611.1
2023-05-10T00:46:29.509Z,609.5
2023-05-10T00:48:08.245Z,611.1
2023-05-10T00:49:47.007Z,611.2
2023-05-10T00:51:25.730Z,610.4
2023-05-10T00:53:04.455Z,611.1
2023-05-10T00:54:11.737Z,611.7
2023-05-10T00:55:18.970Z,610
2023-05-10T00:56:57.704Z,610.4
2023-05-10T00:58:36.436Z,610.5
2023-05-10T01:00:15.180Z,610.9
2023-05-10T01:01:54.114Z,611.2
2023-05-10T01:03:32.661Z,610.9
2023-05-10T01:05:11.399Z,610.1
2023-05-10T01:06:50.137Z,612.1
2023-05-10T01:08:28.888Z,610.7
2023-05-10T01:10:07.617Z,610.9
2023-05-10T01:11:14.878Z,610.1
2023-05-10T01:14:15.656Z,610.7
2023-05-10T01:17:33.077Z,609.5
2023-05-10T01:20:49.581Z,609.6
2023-05-10T01:22:36.414Z,611.4
2023-05-10T01:24:15.186Z,610.8
2023-05-10T01:25:53.890Z,609.7
2023-05-10T01:27:32.612Z,610.9
2023-05-10T01:28:39.884Z,608.8
2023-05-10T01:29:47.120Z,610.6
2023-05-10T01:31:25.854Z,610.3
2023-05-10T01:33:04.596Z,611.1
2023-05-10T01:34:43.373Z,610.9
2023-05-10T01:36:22.085Z,609.9
2023-05-10T01:38:00.822Z,610.1
2023-05-10T01:39:39.566Z,609.2
2023-05-10T01:41:18.303Z,609.4
2023-05-10T01:42:57.049Z,611.6
2023-05-10T01:44:35.788Z,608.9
2023-05-10T01:45:43.045Z,610.8
2023-05-10T01:46:50.295Z,610.9
2023-05-10T01:48:29.060Z,611
2023-05-10T01:50:07.772Z,610.1
2023-05-10T01:51:46.514Z,610.1
2023-05-10T01:53:25.250Z,610.5
2023-05-10T01:55:04.014Z,609.4
2023-05-10T01:56:42.734Z,610.7
2023-05-10T01:58:21.480Z,610.2
2023-05-10T02:02:11.038Z,610.3
2023-05-10T02:03:17.862Z,610.3
2023-05-10T02:04:24.628Z,609.5
2023-05-10T02:05:31.399Z,609.7
2023-05-10T02:06:38.181Z,609.6
2023-05-10T02:07:44.942Z,609.3
2023-05-10T02:08:51.752Z,608.7
2023-05-10T02:09:58.509Z,610
2023-05-10T02:11:05.267Z,609.8
2023-05-10T02:12:12.052Z,609.3
2023-05-10T02:13:18.802Z,609.9
2023-05-10T02:14:25.567Z,608.7
2023-05-10T02:15:32.355Z,610.2
2023-05-10T02:16:39.114Z,608.3
2023-05-10T02:17:45.886Z,608
2023-05-10T02:18:52.672Z,608.4
2023-05-10T02:19:59.426Z,608.5
2023-05-10T02:21:06.208Z,610.9
2023-05-10T02:22:12.973Z,608.9
2023-05-10T02:23:19.749Z,608.9
2023-05-10T02:24:26.562Z,609.5
2023-05-10T02:25:33.327Z,609.7
2023-05-10T02:26:40.059Z,609.3
2023-05-10T02:27:46.837Z,609.9
2023-05-10T02:28:53.646Z,609.4
2023-05-10T02:30:00.363Z,610.4
2023-05-10T02:32:12.639Z,609.6
2023-05-10T02:33:51.326Z,609.5
2023-05-10T02:35:04.065Z,609.4
2023-05-10T02:36:11.318Z,609
2023-05-10T02:37:50.040Z,609.8
2023-05-10T02:39:28.784Z,608.3
2023-05-10T02:41:07.515Z,610.4
2023-05-10T02:42:46.253Z,610.2
2023-05-10T02:44:24.994Z,607.4
2023-05-10T02:46:03.740Z,607.9
2023-05-10T02:47:42.480Z,609.2
2023-05-10T02:49:21.196Z,609.6
2023-05-10T02:50:59.933Z,609.5
2023-05-10T02:52:39.680Z,608.7
2023-05-10T02:55:57.131Z,608.7
2023-05-10T02:59:13.601Z,608.9
2023-05-10T03:01:00.410Z,610.9
2023-05-10T03:02:39.151Z,609.9
2023-05-10T03:04:17.882Z,607.9
2023-05-10T03:05:56.616Z,608.2
2023-05-10T03:07:35.349Z,610.1
2023-05-10T03:09:14.081Z,610.6
2023-05-10T03:10:52.827Z,608.6
2023-05-10T03:12:31.565Z,609.4
2023-05-10T03:14:10.290Z,608.2
2023-05-10T03:15:49.028Z,610.1
2023-05-10T03:16:56.283Z,610.4
2023-05-10T03:18:03.541Z,609.3
2023-05-10T03:19:42.273Z,609.8
2023-05-10T03:21:21.017Z,609.4
2023-05-10T03:22:59.742Z,609.4
2023-05-10T03:24:38.474Z,609.3
2023-05-10T03:26:17.211Z,609.9
2023-05-10T03:27:55.949Z,609.7
2023-05-10T03:29:34.681Z,609.7
2023-05-10T03:31:13.406Z,609.4
2023-05-10T03:32:52.132Z,609.6
2023-05-10T03:33:59.391Z,609
2023-05-10T03:35:06.645Z,609
2023-05-10T03:36:45.381Z,608.2
2023-05-10T03:40:53.409Z,608.2
2023-05-10T03:44:09.933Z,608.3
2023-05-10T03:45:56.730Z,609.2
2023-05-10T03:47:35.460Z,608.8
2023-05-10T03:49:14.199Z,609.2
2023-05-10T03:50:26.407Z,609.5
2023-05-10T03:51:33.650Z,607.3
2023-05-10T03:53:12.385Z,608.6
2023-05-10T03:54:51.144Z,607.9
2023-05-10T03:56:29.862Z,609.2
2023-05-10T03:58:08.594Z,608.5
2023-05-10T03:59:47.336Z,607.7
2023-05-10T04:01:26.068Z,608.7
2023-05-10T04:03:04.809Z,607.7
2023-05-10T04:04:43.556Z,607.8
2023-05-10T04:06:22.360Z,608.7
2023-05-10T04:07:29.536Z,609
2023-05-10T04:08:36.786Z,610.6
2023-05-10T04:10:15.521Z,610.3
2023-05-10T04:11:54.253Z,609.2
2023-05-10T04:13:32.986Z,609.1
2023-05-10T04:15:11.728Z,609.4
2023-05-10T04:16:50.456Z,610
2023-05-10T04:18:29.190Z,608.2
2023-05-10T04:20:07.928Z,605.5
2023-05-10T04:21:46.669Z,606
2023-05-10T04:23:57.524Z,603.7
2023-05-10T04:25:53.195Z,603
2023-05-10T04:26:59.959Z,601
2023-05-10T04:28:06.744Z,600.6
2023-05-10T04:29:13.517Z,600.9
2023-05-10T04:30:20.298Z,600.2
2023-05-10T04:31:27.083Z,597.3
2023-05-10T04:32:33.850Z,599.9
2023-05-10T04:33:40.633Z,599.3
2023-05-10T04:34:47.415Z,598.7
2023-05-10T04:35:54.205Z,597.8
2023-05-10T04:37:00.970Z,598.5
2023-05-10T04:38:07.761Z,598.4
2023-05-10T04:39:14.535Z,598.1
2023-05-10T04:40:21.321Z,597.1
2023-05-10T04:41:28.087Z,595.3
2023-05-10T04:42:34.861Z,598.4
2023-05-10T04:43:41.686Z,597.6
2023-05-10T04:44:48.425Z,597
2023-05-10T04:45:55.283Z,597.7
2023-05-10T04:47:01.975Z,595
2023-05-10T04:48:08.762Z,597
2023-05-10T04:49:15.523Z,593.9
2023-05-10T04:50:22.316Z,595
2023-05-10T04:51:29.076Z,595.3
2023-05-10T04:52:35.852Z,595
2023-05-10T04:54:48.081Z,594.8
2023-05-10T04:56:26.805Z,594.5
2023-05-10T04:57:34.120Z,595.5
2023-05-10T04:58:41.339Z,594.2
2023-05-10T05:00:20.064Z,592
2023-05-10T05:01:58.798Z,591
2023-05-10T05:03:37.527Z,593.9
2023-05-10T05:05:16.258Z,595.5
2023-05-10T05:06:55.012Z,596.1
2023-05-10T05:08:33.751Z,596.1
2023-05-10T05:10:12.506Z,596.5
2023-05-10T05:11:51.230Z,598
2023-05-10T05:13:29.953Z,598.3
2023-05-10T05:15:09.687Z,597
2023-05-10T05:18:26.241Z,598.2
2023-05-10T05:20:13.020Z,598.2
2023-05-10T05:21:51.769Z,598.2
2023-05-10T05:23:30.537Z,599.6
2023-05-10T05:25:09.267Z,596.9
2023-05-10T05:26:48.003Z,598.6
2023-05-10T05:28:26.733Z,596.7
2023-05-10T05:30:05.470Z,600.7
2023-05-10T05:31:44.232Z,600.7
2023-05-10T05:33:22.995Z,600.7
2023-05-10T05:35:01.687Z,599.3
2023-05-10T05:36:40.427Z,598.5
2023-05-10T05:38:19.172Z,600.1
2023-05-10T05:39:26.428Z,600.9
2023-05-10T05:40:33.697Z,600.6
2023-05-10T05:42:12.493Z,600.5
2023-05-10T05:43:51.275Z,600.1
2023-05-10T05:45:30.013Z,600.6
2023-05-10T05:47:08.735Z,599
2023-05-10T05:48:47.385Z,601.9
2023-05-10T05:50:26.142Z,600.1
2023-05-10T05:52:04.878Z,601.8
2023-05-10T05:53:43.605Z,600.6
2023-05-10T05:55:22.372Z,601.7
2023-05-10T05:56:29.685Z,601.5
2023-05-10T05:59:30.453Z,601.6
2023-05-10T06:02:47.857Z,602.8
2023-05-10T06:06:04.312Z,602.1
2023-05-10T06:07:51.098Z,601.1
2023-05-10T06:09:29.893Z,603
2023-05-10T06:11:08.729Z,602.2
2023-05-10T06:12:47.356Z,603
2023-05-10T06:13:54.577Z,602.6
2023-05-10T06:15:01.832Z,601.6
2023-05-10T06:16:40.548Z,602.4
2023-05-10T06:18:19.349Z,601.9
2023-05-10T06:19:58.050Z,604.1
2023-05-10T06:21:36.834Z,602.5
2023-05-10T06:23:15.550Z,602.2
2023-05-10T06:24:54.249Z,603.5
2023-05-10T06:26:32.968Z,603.3
2023-05-10T06:28:11.845Z,603
2023-05-10T06:29:50.451Z,604.2
2023-05-10T06:30:57.784Z,602.8
2023-05-10T06:32:04.959Z,604.5
2023-05-10T06:33:43.775Z,601.9
2023-05-10T06:35:22.453Z,604.7
2023-05-10T06:37:01.160Z,604.1
2023-05-10T06:38:39.928Z,604.1
2023-05-10T06:40:18.660Z,604.7
2023-05-10T06:41:57.384Z,604.6
2023-05-10T06:43:36.184Z,603.4
2023-05-10T06:47:25.728Z,604.4
2023-05-10T06:48:33.939Z,605.7
2023-05-10T06:51:50.424Z,604.5
2023-05-10T06:53:37.350Z,605
2023-05-10T06:55:15.973Z,604.6
2023-05-10T06:56:54.828Z,604.6
2023-05-10T06:58:33.440Z,605.4
2023-05-10T07:00:12.270Z,604.7
2023-05-10T07:01:51.019Z,604
2023-05-10T07:03:29.781Z,604.8
2023-05-10T07:05:08.480Z,604.3
2023-05-10T07:06:47.196Z,605.7
2023-05-10T07:08:26.025Z,606
2023-05-10T07:10:04.763Z,604.4
2023-05-10T07:11:43.537Z,605.7
2023-05-10T07:13:22.131Z,608.5
2023-05-10T07:15:00.835Z,603.4
2023-05-10T07:16:39.612Z,605.7
2023-05-10T07:18:18.320Z,604.3
2023-05-10T07:19:57.107Z,605.4
2023-05-10T07:21:04.368Z,604.3
2023-05-10T07:22:11.569Z,603.8
2023-05-10T07:23:50.382Z,604.5
2023-05-10T07:25:29.050Z,604.7
2023-05-10T07:27:07.843Z,605.5
2023-05-10T07:28:46.573Z,604.4
2023-05-10T07:30:25.206Z,605.3
2023-05-10T07:34:33.394Z,605.7
2023-05-10T07:38:38.607Z,605.2
2023-05-10T07:40:17.334Z,606.5
2023-05-10T07:41:56.059Z,606.5
2023-05-10T07:43:34.805Z,606.3
2023-05-10T07:45:13.547Z,605.9
2023-05-10T07:46:52.283Z,606.1
2023-05-10T07:48:31.074Z,605.1
2023-05-10T07:50:09.812Z,607.2
2023-05-10T07:51:48.505Z,605.5
2023-05-10T07:53:27.209Z,605.7
2023-05-10T07:55:05.923Z,606.5
2023-05-10T07:56:13.208Z,608
2023-05-10T07:57:20.422Z,604.3
2023-05-10T07:58:59.159Z,606.3
2023-05-10T08:00:37.905Z,607.4
2023-05-10T08:02:16.629Z,607.1
2023-05-10T08:03:55.473Z,606.9
2023-05-10T08:05:34.099Z,606.5
2023-05-10T08:07:12.894Z,608.1
2023-05-10T08:08:51.625Z,606.8
2023-05-10T08:10:30.504Z,608.6
2023-05-10T08:12:09.059Z,607.1
2023-05-10T08:13:16.326Z,606.2
2023-05-10T08:14:23.609Z,606.5
2023-05-10T08:18:31.607Z,607.9
2023-05-10T08:21:47.580Z,606.7
2023-05-10T08:22:54.312Z,607
2023-05-10T08:24:01.083Z,608.3
2023-05-10T08:25:07.929Z,606.5
2023-05-10T08:26:14.801Z,606.3
2023-05-10T08:27:21.420Z,608.2
2023-05-10T08:28:28.452Z,607
2023-05-10T08:29:35.129Z,607.9
2023-05-10T08:30:41.971Z,609.3
2023-05-10T08:31:48.662Z,606.3
2023-05-10T08:32:55.478Z,607.9
2023-05-10T08:34:02.266Z,610
2023-05-10T08:35:08.956Z,608
2023-05-10T08:36:15.875Z,607.7
2023-05-10T08:37:22.612Z,606.9
2023-05-10T08:38:29.363Z,607.9
2023-05-10T08:39:36.128Z,607.1
2023-05-10T08:40:42.863Z,609.6
2023-05-10T08:41:49.685Z,608.9
2023-05-10T08:42:56.472Z,609.2
2023-05-10T08:44:03.335Z,610.1
2023-05-10T08:45:09.854Z,608.4
2023-05-10T08:46:16.637Z,608.4
2023-05-10T08:47:23.487Z,609
2023-05-10T08:48:30.310Z,608.5
2023-05-10T08:50:03.055Z,609.2
2023-05-10T08:51:41.854Z,609.1
2023-05-10T08:53:20.603Z,608
2023-05-10T08:54:59.286Z,608
2023-05-10T08:56:38.071Z,608.9
2023-05-10T08:57:45.198Z,609.2
2023-05-10T08:58:52.464Z,608.5
2023-05-10T09:00:31.211Z,607.5
2023-05-10T09:02:10.058Z,609.8
2023-05-10T09:03:48.661Z,607.5
2023-05-10T09:05:27.395Z,607.9
2023-05-10T09:07:06.197Z,609.8
2023-05-10T09:08:44.959Z,609.9
2023-05-10T09:12:52.901Z,608.9
2023-05-10T09:14:11.846Z,609.8
2023-05-10T09:16:08.874Z,608.6
2023-05-10T09:17:15.590Z,610.2
2023-05-10T09:18:22.421Z,610.3
2023-05-10T09:19:29.175Z,609.1
2023-05-10T09:20:35.955Z,608.4
2023-05-10T09:21:42.720Z,609.2
2023-05-10T09:22:49.499Z,610.2
2023-05-10T09:23:56.349Z,610.2
2023-05-10T09:25:03.054Z,609.9
2023-05-10T09:26:09.830Z,609.9
2023-05-10T09:27:16.609Z,609.4
2023-05-10T09:28:23.388Z,610.5
2023-05-10T09:29:30.196Z,609.3
2023-05-10T09:30:36.948Z,608.8
2023-05-10T09:31:43.730Z,611.6
2023-05-10T09:32:50.489Z,609.4
2023-05-10T09:33:57.276Z,609.5
2023-05-10T09:35:04.041Z,610.5
2023-05-10T09:36:10.892Z,610.8
2023-05-10T09:37:17.613Z,610.4
2023-05-10T09:38:24.391Z,610.1
2023-05-10T09:39:31.161Z,610.3
2023-05-10T09:40:37.999Z,609.5
2023-05-10T09:41:44.714Z,611.2
2023-05-10T09:42:51.525Z,609.1
2023-05-10T09:43:58.285Z,609
2023-05-10T09:45:05.054Z,610.2
2023-05-10T09:46:11.999Z,611.2
2023-05-10T09:47:18.618Z,609.3
2023-05-10T09:48:25.394Z,609.8
2023-05-10T09:49:32.186Z,610.2
2023-05-10T09:50:39.000Z,609.1
2023-05-10T09:51:45.752Z,610.3
2023-05-10T09:52:52.510Z,611.3
2023-05-10T09:53:59.283Z,608.6
2023-05-10T09:55:06.076Z,611
2023-05-10T09:56:12.854Z,608.4
2023-05-10T09:58:25.079Z,610.9
2023-05-10T09:59:32.348Z,609.5
2023-05-10T10:00:39.597Z,609.8
2023-05-10T10:02:18.322Z,610.1
2023-05-10T10:03:57.058Z,611.3
2023-05-10T10:05:35.904Z,610.3
2023-05-10T10:07:14.533Z,611.2
2023-05-10T10:08:53.268Z,612.9
2023-05-10T10:10:32.003Z,611.1
2023-05-10T10:12:10.767Z,611.4
2023-05-10T10:13:49.472Z,609.9
2023-05-10T10:15:28.211Z,611.7
2023-05-10T10:16:35.478Z,611.8
2023-05-10T10:19:36.230Z,610.6
2023-05-10T10:22:52.736Z,610.5
2023-05-10T10:24:39.583Z,610
2023-05-10T10:26:18.308Z,611.2
2023-05-10T10:27:56.999Z,611.8
2023-05-10T10:29:35.736Z,611.7
2023-05-10T10:31:14.483Z,610.9
2023-05-10T10:32:53.353Z,611.3
2023-05-10T10:34:00.428Z,609.9
2023-05-10T10:35:07.749Z,612.4
2023-05-10T10:36:46.360Z,611.2
2023-05-10T10:38:25.101Z,610.9
2023-05-10T10:40:03.869Z,612.1
2023-05-10T10:41:42.707Z,611.3
2023-05-10T10:43:21.331Z,611.5
2023-05-10T10:45:00.099Z,613.1
2023-05-10T10:46:38.879Z,612.8
2023-05-10T10:48:17.533Z,612.2
2023-05-10T10:49:56.421Z,611.3
2023-05-10T10:51:03.626Z,611
2023-05-10T10:52:10.886Z,611.7
2023-05-10T10:53:49.538Z,613.3
2023-05-10T10:55:28.388Z,612.1
2023-05-10T10:57:06.961Z,612.3
2023-05-10T10:58:45.698Z,613.2
2023-05-10T11:00:24.446Z,611.3
2023-05-10T11:04:32.588Z,613.8
2023-05-10T11:07:30.061Z,611.3
2023-05-10T11:08:36.800Z,611.9
2023-05-10T11:09:43.496Z,612.5
2023-05-10T11:10:50.257Z,612.6
2023-05-10T11:11:57.101Z,615.1
2023-05-10T11:13:03.917Z,612.2
2023-05-10T11:14:10.679Z,613.1
2023-05-10T11:15:17.376Z,612.1
2023-05-10T11:17:31.005Z,612.9
2023-05-10T11:18:37.768Z,612.9
2023-05-10T11:19:44.572Z,612.5
2023-05-10T11:20:51.322Z,612.6
2023-05-10T11:21:58.159Z,611.5
2023-05-10T11:23:04.817Z,610.1
2023-05-10T11:24:11.670Z,611.3
2023-05-10T11:25:18.430Z,614.5
2023-05-10T11:26:25.221Z,614.7
2023-05-10T11:27:31.924Z,614.1
2023-05-10T11:28:38.808Z,613.4
2023-05-10T11:29:45.520Z,612.2
2023-05-10T11:30:52.261Z,611.9
2023-05-10T11:31:59.106Z,611.5
2023-05-10T11:33:05.866Z,613.2
2023-05-10T11:34:12.601Z,612.7
2023-05-10T11:35:46.177Z,612.7
2023-05-10T11:37:24.956Z,611.9
2023-05-10T11:39:03.718Z,612.9
2023-05-10T11:40:42.414Z,612.9
2023-05-10T11:42:21.155Z,612.7
2023-05-10T11:43:28.409Z,613.3
2023-05-10T11:44:35.713Z,612.7
2023-05-10T11:46:14.398Z,613.3
2023-05-10T11:47:53.136Z,612
2023-05-10T11:49:31.870Z,612.9
2023-05-10T11:51:10.630Z,612.5
2023-05-10T11:52:49.349Z,612.4
2023-05-10T11:54:28.087Z,613.3
2023-05-10T11:58:36.161Z,613.6
2023-05-10T11:59:55.476Z,613.7
2023-05-10T12:01:52.540Z,612.4
2023-05-10T12:03:31.284Z,613.4
2023-05-10T12:05:10.025Z,614.3
2023-05-10T12:06:48.769Z,613.8
2023-05-10T12:08:27.527Z,613.5
2023-05-10T12:10:06.251Z,613.9
2023-05-10T12:11:45.055Z,614.2
2023-05-10T12:13:23.742Z,612.9
2023-05-10T12:15:02.464Z,613.3
2023-05-10T12:16:41.207Z,614
2023-05-10T12:17:48.461Z,613
2023-05-10T12:18:55.718Z,613.8
2023-05-10T12:20:34.450Z,614.4
2023-05-10T12:22:13.201Z,613.6
2023-05-10T12:23:51.918Z,615.3
2023-05-10T12:25:30.655Z,613.5
2023-05-10T12:27:09.395Z,613.7
2023-05-10T12:28:48.164Z,614.5
2023-05-10T12:30:26.868Z,613.1
2023-05-10T12:32:05.623Z,614.9
2023-05-10T12:33:44.343Z,612.8
2023-05-10T12:34:51.592Z,614.3
2023-05-10T12:35:58.933Z,614.5
2023-05-10T12:37:37.608Z,614.2
2023-05-10T12:41:45.644Z,614.6
2023-05-10T12:45:02.141Z,612.4
2023-05-10T12:46:49.149Z,612.2
2023-05-10T12:48:27.780Z,614.5
2023-05-10T12:50:06.521Z,613.4
2023-05-10T12:51:18.635Z,614
2023-05-10T12:52:25.902Z,614.2
2023-05-10T12:54:04.715Z,613.6
2023-05-10T12:55:43.396Z,613.7
2023-05-10T12:57:22.120Z,614.4
2023-05-10T12:59:00.793Z,615
2023-05-10T13:00:39.513Z,613.8
2023-05-10T13:02:18.335Z,614.2
2023-05-10T13:03:56.978Z,614.1
2023-05-10T13:05:35.785Z,615
2023-05-10T13:07:14.528Z,613.1
2023-05-10T13:08:21.688Z,614.3
2023-05-10T13:09:28.985Z,613.4
2023-05-10T13:11:07.699Z,614.3
2023-05-10T13:12:46.404Z,615.6
2023-05-10T13:14:25.156Z,614.4
2023-05-10T13:16:03.938Z,615.8
2023-05-10T13:17:42.612Z,614.2
2023-05-10T13:19:21.328Z,614.3
2023-05-10T13:21:00.058Z,615
2023-05-10T13:22:38.769Z,614.9
2023-05-10T13:24:49.674Z,613
2023-05-10T13:26:45.859Z,613.5
2023-05-10T13:28:32.676Z,614.5
2023-05-10T13:30:11.401Z,616
2023-05-10T13:31:50.147Z,614
2023-05-10T13:33:28.864Z,613.3
2023-05-10T13:35:07.639Z,614.5
2023-05-10T13:36:46.366Z,614.4
2023-05-10T13:38:25.104Z,614.5
2023-05-10T13:40:03.818Z,613.9
2023-05-10T13:41:42.702Z,614.8
2023-05-10T13:43:21.388Z,613.3
2023-05-10T13:44:59.994Z,615.3
2023-05-10T13:46:38.710Z,614.3
2023-05-10T13:48:17.468Z,614.2
2023-05-10T13:49:56.166Z,613.5
2023-05-10T13:51:35.112Z,614.5
2023-05-10T13:53:13.639Z,614.3
2023-05-10T13:54:52.391Z,613.7
2023-05-10T13:56:31.082Z,613.6
2023-05-10T13:57:42.734Z,614.9
2023-05-10T13:58:49.968Z,614.2
2023-05-10T14:00:28.741Z,614.3
2023-05-10T14:02:07.445Z,613.6
2023-05-10T14:03:46.157Z,614.8
2023-05-10T14:05:24.880Z,614.6
2023-05-10T14:09:33.006Z,614.7
2023-05-10T14:12:48.934Z,614
2023-05-10T14:13:55.600Z,613.7
2023-05-10T14:15:02.393Z,613.6
2023-05-10T14:16:09.170Z,614
2023-05-10T14:17:15.944Z,613.7
2023-05-10T14:18:22.715Z,615.4
2023-05-10T14:19:29.481Z,613.8
2023-05-10T14:20:36.270Z,614.3
2023-05-10T14:21:43.051Z,614.8
2023-05-10T14:22:49.828Z,614.9
2023-05-10T14:23:56.597Z,613.4
2023-05-10T14:25:03.389Z,614
2023-05-10T14:26:10.270Z,613.1
2023-05-10T14:27:17.014Z,613.5
2023-05-10T14:28:23.771Z,614.4
2023-05-10T14:29:30.544Z,612.9
2023-05-10T14:31:44.042Z,616.3
2023-05-10T14:32:50.841Z,614
2023-05-10T14:33:57.678Z,614
2023-05-10T14:35:04.420Z,613.4
2023-05-10T14:36:11.166Z,613.6
2023-05-10T14:37:17.947Z,611.6
2023-05-10T14:38:24.733Z,613.6
2023-05-10T14:39:31.537Z,614.1
2023-05-10T14:41:04.876Z,613.9
2023-05-10T14:42:12.133Z,613.7
2023-05-10T14:43:50.879Z,614.9
2023-05-10T14:45:29.588Z,614.2
2023-05-10T14:47:08.317Z,614.2
2023-05-10T14:48:47.178Z,614.5
2023-05-10T14:50:25.852Z,613.7
2023-05-10T14:52:04.573Z,613.2
2023-05-10T14:53:43.333Z,614
2023-05-10T14:55:22.030Z,613.9
2023-05-10T14:57:00.730Z,613.5
2023-05-10T14:58:08.004Z,614.8
2023-05-10T14:59:15.282Z,613.6
2023-05-10T15:03:23.290Z,614.1
2023-05-10T15:06:39.867Z,615.3
2023-05-10T15:08:34.941Z,614.6
2023-05-10T15:10:13.598Z,614.2
2023-05-10T15:11:52.482Z,614.4
2023-05-10T15:13:31.061Z,613.6
2023-05-10T15:14:38.302Z,614.3
2023-05-10T15:15:45.561Z,614.6
2023-05-10T15:17:24.375Z,613.2
2023-05-10T15:19:03.073Z,614
2023-05-10T15:20:41.956Z,613.1
2023-05-10T15:22:20.607Z,614.3
2023-05-10T15:23:59.325Z,614.7
2023-05-10T15:27:16.876Z,615.1
2023-05-10T15:28:55.633Z,612.4
2023-05-10T15:30:34.327Z,614.9
2023-05-10T15:31:41.449Z,615.7
2023-05-10T15:32:48.778Z,614.9
2023-05-10T15:34:27.566Z,615.6
2023-05-10T15:36:06.265Z,613.5
2023-05-10T15:37:44.987Z,614.2
2023-05-10T15:39:23.759Z,613.1
2023-05-10T15:41:02.405Z,614.2
2023-05-10T15:42:41.144Z,614
2023-05-10T15:44:20.012Z,614.4
2023-05-10T15:48:09.496Z,612.2
2023-05-10T15:49:17.658Z,614.2
2023-05-10T15:52:34.295Z,613.5
2023-05-10T15:54:21.045Z,614.2
2023-05-10T15:55:59.734Z,613.5
2023-05-10T15:57:38.485Z,614.5
2023-05-10T15:59:17.216Z,613.9
2023-05-10T16:00:56.098Z,613.9
2023-05-10T16:02:34.702Z,612.3
2023-05-10T16:04:13.423Z,615.2
2023-05-10T16:05:52.175Z,613.4
2023-05-10T16:07:30.957Z,612.4
2023-05-10T16:09:09.703Z,613.5
2023-05-10T16:10:48.391Z,614
2023-05-10T16:12:27.149Z,612.7
2023-05-10T16:14:05.881Z,612.3
2023-05-10T16:15:44.595Z,614.4
2023-05-10T16:17:23.349Z,613.4
2023-05-10T16:19:02.073Z,615.7
2023-05-10T16:20:40.857Z,614.3
2023-05-10T16:21:48.075Z,613.5
2023-05-10T16:22:55.354Z,612.9
2023-05-10T16:24:34.205Z,612.9
2023-05-10T16:26:12.834Z,614.3
2023-05-10T16:27:51.644Z,614.4
2023-05-10T16:29:30.432Z,614.3
2023-05-10T16:31:09.017Z,614.3
2023-05-10T16:35:17.149Z,615.4
2023-05-10T16:38:14.644Z,612.5
2023-05-10T16:39:21.377Z,615.1
2023-05-10T16:40:28.133Z,612.9
2023-05-10T16:41:34.970Z,613.7
2023-05-10T16:42:41.682Z,614.8
2023-05-10T16:43:48.581Z,614.3
2023-05-10T16:44:55.304Z,613.2
2023-05-10T16:46:02.007Z,613.1
2023-05-10T16:47:08.793Z,613.1
2023-05-10T16:48:15.688Z,614.3
2023-05-10T16:49:22.417Z,614
2023-05-10T16:50:29.126Z,613.2
2023-05-10T16:51:35.926Z,613.7
2023-05-10T16:52:42.687Z,614.4
2023-05-10T16:53:49.463Z,613.5
2023-05-10T16:54:56.299Z,614.1
2023-05-10T16:56:03.039Z,614.1
2023-05-10T16:57:09.793Z,613.1
2023-05-10T16:58:16.575Z,613.6
2023-05-10T16:59:23.353Z,615.4
2023-05-10T17:00:30.233Z,613.9
2023-05-10T17:01:37.031Z,613.4
2023-05-10T17:02:43.728Z,614.1
2023-05-10T17:03:50.502Z,613.9
2023-05-10T17:04:57.247Z,614.8
2023-05-10T17:06:30.368Z,614.8
2023-05-10T17:08:09.021Z,614.9
2023-05-10T17:09:47.722Z,613.6
2023-05-10T17:11:26.460Z,614.7
2023-05-10T17:13:05.208Z,614.1
2023-05-10T17:14:12.450Z,613.8
2023-05-10T17:15:19.707Z,614.6
2023-05-10T17:16:58.456Z,615.1
2023-05-10T17:18:37.190Z,614.3
2023-05-10T17:20:15.937Z,614
2023-05-10T17:21:54.752Z,614.5
2023-05-10T17:23:33.411Z,614.6
2023-05-10T17:25:12.146Z,613.8
2023-05-10T17:29:20.190Z,613.8
2023-05-10T17:30:38.996Z,615.6
2023-05-10T17:32:36.192Z,613.3
2023-05-10T17:33:42.842Z,613.8
2023-05-10T17:34:49.684Z,614
2023-05-10T17:35:56.410Z,614.5
2023-05-10T17:37:03.169Z,614.5
2023-05-10T17:38:10.002Z,614.5
2023-05-10T17:39:16.704Z,613.1
2023-05-10T17:40:23.513Z,614.2
2023-05-10T17:41:30.379Z,615.2
2023-05-10T17:42:37.064Z,614.3
2023-05-10T17:43:43.932Z,614.6
2023-05-10T17:44:50.624Z,614.3
2023-05-10T17:45:57.484Z,614
2023-05-10T17:47:04.100Z,613.6
2023-05-10T17:48:10.954Z,614.4
2023-05-10T17:49:17.658Z,613.6
2023-05-10T17:50:24.442Z,617.1
2023-05-10T17:51:31.255Z,615.6
2023-05-10T17:52:37.967Z,613.9
2023-05-10T17:53:44.750Z,616
2023-05-10T17:54:51.593Z,613.5
2023-05-10T17:55:58.283Z,614.5
2023-05-10T17:57:05.072Z,612.6
2023-05-10T17:58:11.826Z,616.2
2023-05-10T18:00:24.089Z,613.5
2023-05-10T18:02:02.797Z,613.8
2023-05-10T18:03:41.669Z,614.6
2023-05-10T18:05:19.074Z,613.8
2023-05-10T18:06:26.377Z,614.5
2023-05-10T18:08:05.061Z,613.4
2023-05-10T18:09:43.809Z,613.6
2023-05-10T18:11:22.687Z,615.2
2023-05-10T18:13:01.344Z,613.3
2023-05-10T18:14:40.059Z,613.6
2023-05-10T18:16:18.769Z,614.5
2023-05-10T18:17:57.524Z,612.9
2023-05-10T18:19:36.352Z,613.8
2023-05-10T18:21:47.258Z,615.1
2023-05-10T18:23:43.012Z,613.7
2023-05-10T18:24:49.738Z,612.4
2023-05-10T18:25:56.524Z,613.9
2023-05-10T18:27:03.302Z,613.5
2023-05-10T18:28:10.110Z,613.6
2023-05-10T18:29:16.885Z,612.4
2023-05-10T18:30:23.525Z,613.8
2023-05-10T18:31:30.121Z,615
2023-05-10T18:32:36.872Z,614.1
2023-05-10T18:33:43.575Z,613.5
2023-05-10T18:34:50.289Z,613.3
2023-05-10T18:35:57.209Z,611.1
2023-05-10T18:37:03.774Z,611.7
2023-05-10T18:38:10.522Z,612.8
2023-05-10T18:39:17.187Z,612.8
2023-05-10T18:40:23.892Z,614.2
2023-05-10T18:41:30.619Z,612.1
2023-05-10T18:42:37.331Z,613.8
2023-05-10T18:43:44.054Z,612.7
2023-05-10T18:44:50.770Z,612.7
2023-05-10T18:45:57.624Z,613.5
2023-05-10T18:47:04.353Z,614.1
2023-05-10T18:48:11.093Z,614.1
2023-05-10T18:49:17.997Z,612.9
2023-05-10T18:50:24.658Z,613
2023-05-10T18:52:36.941Z,612.7
2023-05-10T18:54:15.574Z,612.6
2023-05-10T18:55:22.927Z,612.3
2023-05-10T18:56:30.181Z,614.7
2023-05-10T18:58:08.894Z,612.4
2023-05-10T18:59:47.504Z,611.7
2023-05-10T19:01:26.249Z,613.8
2023-05-10T19:03:05.015Z,612.6
2023-05-10T19:04:43.739Z,613.2
2023-05-10T19:06:22.606Z,612.7
2023-05-10T19:08:01.351Z,614.1
2023-05-10T19:09:40.024Z,613.5
2023-05-10T19:11:18.691Z,612.7
2023-05-10T19:12:58.490Z,612.8
2023-05-10T19:16:14.535Z,613.6
2023-05-10T19:17:21.234Z,613.1
2023-05-10T19:18:27.988Z,613.4
2023-05-10T19:19:34.804Z,612.5
2023-05-10T19:20:41.574Z,612.3
2023-05-10T19:21:48.439Z,613.3
2023-05-10T19:22:56.003Z,611.7
2023-05-10T19:24:01.923Z,613.3
2023-05-10T19:25:09.093Z,611.9
2023-05-10T19:26:15.351Z,611.7
2023-05-10T19:27:22.156Z,613.5
2023-05-10T19:28:28.861Z,613.3
2023-05-10T19:29:35.676Z,612.4
2023-05-10T19:30:42.360Z,611.2
2023-05-10T19:31:49.225Z,611.1
2023-05-10T19:32:55.871Z,611.9
2023-05-10T19:34:04.238Z,613.5
2023-05-10T19:35:09.374Z,612.4
2023-05-10T19:36:16.035Z,611.8
2023-05-10T19:37:23.242Z,612.4
2023-05-10T19:38:29.489Z,611.8
2023-05-10T19:39:36.198Z,612.4
2023-05-10T19:40:43.258Z,611.6
2023-05-10T19:41:49.915Z,611.2
2023-05-10T19:42:56.395Z,612.9
2023-05-10T19:45:08.613Z,611.8
2023-05-10T19:46:15.913Z,612.7
2023-05-10T19:47:23.008Z,611.4